createdAt,value
2023-03-17T00:00:51.517Z,5.36
2023-03-17T00:02:55.223Z,5.35
2023-03-17T00:04:59.861Z,5.34
2023-03-17T00:07:03.246Z,5.33
2023-03-17T00:09:11.544Z,5.31
2023-03-17T00:11:17.278Z,5.31
2023-03-17T00:13:20.905Z,5.32
2023-03-17T00:15:26.740Z,5.33
2023-03-17T00:17:30.025Z,5.33
2023-03-17T00:19:36.398Z,5.33
2023-03-17T00:21:42.175Z,5.32
2023-03-17T00:23:49.955Z,5.32
2023-03-17T00:25:54.346Z,5.31
2023-03-17T00:27:59.358Z,5.31
2023-03-17T00:30:03.685Z,5.30
2023-03-17T00:32:07.779Z,5.30
2023-03-17T00:34:13.324Z,5.30
2023-03-17T00:36:19.397Z,5.29
2023-03-17T00:38:25.205Z,5.27
2023-03-17T00:40:31.235Z,5.26
2023-03-17T00:42:35.272Z,5.26
2023-03-17T00:44:38.526Z,5.25
2023-03-17T00:46:42.511Z,5.25
2023-03-17T00:48:47.460Z,5.25
2023-03-17T00:50:51.833Z,5.25
2023-03-17T00:52:57.631Z,5.23
2023-03-17T00:55:02.311Z,5.22
2023-03-17T00:57:05.827Z,5.21
2023-03-17T00:59:20.555Z,5.17
2023-03-17T01:01:23.891Z,5.16
2023-03-17T01:03:28.374Z,5.11
2023-03-17T01:05:32.072Z,5.08
2023-03-17T01:07:38.595Z,5.05
2023-03-17T01:09:43.915Z,5.04
2023-03-17T01:11:49.246Z,5.01
2023-03-17T01:13:52.696Z,4.99
2023-03-17T01:15:57.158Z,4.98
2023-03-17T01:18:02.745Z,4.95
2023-03-17T01:20:08.030Z,4.93
2023-03-17T01:22:11.540Z,4.90
2023-03-17T01:24:14.886Z,4.90
2023-03-17T01:26:18.281Z,4.90
2023-03-17T01:28:23.354Z,4.90
2023-03-17T01:30:29.712Z,4.89
2023-03-17T01:32:33.926Z,4.89
2023-03-17T01:34:37.810Z,4.88
2023-03-17T01:36:41.407Z,4.86
2023-03-17T01:38:44.725Z,4.82
2023-03-17T01:40:50.479Z,4.78
2023-03-17T01:42:55.482Z,4.74
2023-03-17T01:45:02.537Z,4.72
2023-03-17T01:47:07.187Z,4.66
2023-03-17T01:49:15.945Z,4.63
2023-03-17T01:51:25.428Z,4.59
2023-03-17T01:53:29.268Z,4.56
2023-03-17T01:55:32.617Z,4.54
2023-03-17T01:57:40.045Z,4.52
2023-03-17T01:59:47.706Z,4.52
2023-03-17T02:01:55.684Z,4.52
2023-03-17T02:04:00.233Z,4.54
2023-03-17T02:06:04.996Z,4.55
2023-03-17T02:08:13.560Z,4.54
2023-03-17T02:10:19.377Z,4.55
2023-03-17T02:12:24.718Z,4.55
2023-03-17T02:14:28.732Z,4.55
2023-03-17T02:16:32.582Z,4.56
2023-03-17T02:18:37.205Z,4.56
2023-03-17T02:21:25.235Z,4.55
2023-03-17T02:23:30.646Z,4.57
2023-03-17T02:25:35.796Z,4.57
2023-03-17T02:27:43.016Z,4.57
2023-03-17T02:29:47.369Z,4.58
2023-03-17T02:31:51.088Z,4.59
2023-03-17T02:33:54.893Z,4.61
2023-03-17T02:35:58.119Z,4.63
2023-03-17T02:38:01.810Z,4.65
2023-03-17T02:40:10.314Z,4.67
2023-03-17T02:42:14.895Z,4.67
2023-03-17T02:44:18.177Z,4.66
2023-03-17T02:46:21.582Z,4.66
2023-03-17T02:48:24.879Z,4.66
2023-03-17T02:50:30.042Z,4.68
2023-03-17T02:52:33.417Z,4.67
2023-03-17T02:54:36.831Z,4.68
2023-03-17T02:56:42.029Z,4.70
2023-03-17T02:58:45.471Z,4.72
2023-03-17T03:00:49.024Z,4.72
2023-03-17T03:02:52.838Z,4.73
2023-03-17T03:04:57.364Z,4.72
2023-03-17T03:07:00.596Z,4.73
2023-03-17T03:09:04.260Z,4.73
2023-03-17T03:11:07.801Z,4.73
2023-03-17T03:13:12.895Z,4.73
2023-03-17T03:15:16.202Z,4.72
2023-03-17T03:17:19.481Z,4.73
2023-03-17T03:19:24.367Z,4.74
2023-03-17T03:21:27.692Z,4.74
2023-03-17T03:23:30.953Z,4.75
2023-03-17T03:25:34.605Z,4.74
2023-03-17T03:27:37.829Z,4.75
2023-03-17T03:29:42.538Z,4.75
2023-03-17T03:31:48.150Z,4.74
2023-03-17T03:33:51.669Z,4.75
2023-03-17T03:35:55.286Z,4.73
2023-03-17T03:37:59.059Z,4.74
2023-03-17T03:40:02.970Z,4.72
2023-03-17T03:42:07.080Z,4.73
2023-03-17T03:44:10.547Z,4.71
2023-03-17T03:46:15.680Z,4.69
2023-03-17T03:48:19.357Z,4.66
2023-03-17T03:50:22.825Z,4.62
2023-03-17T03:52:26.254Z,4.59
2023-03-17T03:54:29.511Z,4.54
2023-03-17T03:56:32.777Z,4.51
2023-03-17T03:58:36.000Z,4.49
2023-03-17T04:00:39.313Z,4.46
2023-03-17T04:02:45.183Z,4.44
2023-03-17T04:04:49.059Z,4.42
2023-03-17T04:06:52.371Z,4.41
2023-03-17T04:08:58.162Z,4.38
2023-03-17T04:11:01.805Z,4.36
2023-03-17T04:13:05.127Z,4.35
2023-03-17T04:15:11.293Z,4.34
2023-03-17T04:17:15.631Z,4.33
2023-03-17T04:19:21.604Z,4.31
2023-03-17T04:21:24.905Z,4.29
2023-03-17T04:23:28.959Z,4.27
2023-03-17T04:25:32.655Z,4.25
2023-03-17T04:27:36.217Z,4.24
2023-03-17T04:29:39.406Z,4.25
2023-03-17T04:31:43.186Z,4.26
2023-03-17T04:33:46.515Z,4.26
2023-03-17T04:35:51.377Z,4.27
2023-03-17T04:37:54.678Z,4.26
2023-03-17T04:39:57.935Z,4.26
2023-03-17T04:42:01.457Z,4.25
2023-03-17T04:44:04.711Z,4.24
2023-03-17T04:46:08.111Z,4.24
2023-03-17T04:48:11.371Z,4.25
2023-03-17T04:50:15.918Z,4.24
2023-03-17T04:52:20.620Z,4.24
2023-03-17T04:54:23.987Z,4.24
2023-03-17T04:56:27.497Z,4.24
2023-03-17T04:58:31.402Z,4.23
2023-03-17T05:00:38.933Z,4.23
2023-03-17T05:02:42.296Z,4.22
2023-03-17T05:04:45.970Z,4.21
2023-03-17T05:06:49.197Z,4.19
2023-03-17T05:08:53.929Z,4.18
2023-03-17T05:10:58.398Z,4.18
2023-03-17T05:13:01.662Z,4.14
2023-03-17T05:15:05.684Z,4.13
2023-03-17T05:17:09.170Z,4.11
2023-03-17T05:19:12.347Z,4.07
2023-03-17T05:21:15.631Z,4.04
2023-03-17T05:23:18.873Z,4.03
2023-03-17T05:25:23.604Z,4.02
2023-03-17T05:27:27.054Z,3.99
2023-03-17T05:29:30.336Z,3.97
2023-03-17T05:31:34.294Z,3.95
2023-03-17T05:33:37.677Z,3.95
2023-03-17T05:35:40.890Z,3.94
2023-03-17T05:37:44.467Z,3.95
2023-03-17T05:39:47.910Z,3.95
2023-03-17T05:41:52.601Z,3.96
2023-03-17T05:43:56.255Z,3.96
2023-03-17T05:45:59.546Z,3.98
2023-03-17T05:48:03.327Z,4.00
2023-03-17T05:50:08.069Z,4.02
2023-03-17T05:52:11.418Z,4.04
2023-03-17T05:54:15.782Z,4.05
2023-03-17T05:56:19.012Z,4.08
2023-03-17T05:58:23.834Z,4.11
2023-03-17T06:00:29.295Z,4.14
2023-03-17T06:02:32.822Z,4.16
2023-03-17T06:04:36.314Z,4.19
2023-03-17T06:06:40.034Z,4.20
2023-03-17T06:08:43.368Z,4.23
2023-03-17T06:10:46.710Z,4.26
2023-03-17T06:12:49.999Z,4.28
2023-03-17T06:14:54.594Z,4.31
2023-03-17T06:16:58.081Z,4.34
2023-03-17T06:19:01.485Z,4.37
2023-03-17T06:21:04.954Z,4.41
2023-03-17T06:23:08.222Z,4.44
2023-03-17T06:25:12.684Z,4.49
2023-03-17T06:27:16.015Z,4.52
2023-03-17T06:29:19.771Z,4.55
2023-03-17T06:31:24.485Z,4.57
2023-03-17T06:33:28.331Z,4.59
2023-03-17T06:35:33.471Z,4.61
2023-03-17T06:37:37.322Z,4.63
2023-03-17T06:39:41.840Z,4.64
2023-03-17T06:41:45.134Z,4.65
2023-03-17T06:43:48.370Z,4.67
2023-03-17T06:45:51.761Z,4.71
2023-03-17T06:47:57.070Z,4.75
2023-03-17T06:50:00.351Z,4.78
2023-03-17T06:52:03.764Z,4.82
2023-03-17T06:54:07.853Z,4.87
2023-03-17T06:56:23.563Z,4.90
2023-03-17T06:58:32.419Z,4.97
2023-03-17T07:00:35.657Z,5.02
2023-03-17T07:02:38.910Z,5.08
2023-03-17T07:04:43.803Z,5.16
2023-03-17T07:06:47.058Z,5.21
2023-03-17T07:08:50.927Z,5.25
2023-03-17T07:10:55.928Z,5.28
2023-03-17T07:13:02.766Z,5.31
2023-03-17T07:15:06.753Z,5.36
2023-03-17T07:17:13.659Z,5.40
2023-03-17T07:19:16.971Z,5.44
2023-03-17T07:21:21.949Z,5.48
2023-03-17T07:23:26.185Z,5.52
2023-03-17T07:25:29.638Z,5.56
2023-03-17T07:27:33.162Z,5.59
2023-03-17T07:29:36.769Z,5.60
2023-03-17T07:31:40.013Z,5.62
2023-03-17T07:33:43.494Z,5.64
2023-03-17T07:35:47.334Z,5.65
2023-03-17T07:37:52.081Z,5.67
2023-03-17T07:39:55.507Z,5.70
2023-03-17T07:41:58.826Z,5.76
2023-03-17T07:44:02.437Z,5.83
2023-03-17T07:46:06.840Z,5.92
2023-03-17T07:48:10.719Z,6.03
2023-03-17T07:50:15.620Z,6.15
2023-03-17T07:52:19.106Z,6.25
2023-03-17T07:54:25.587Z,6.37
2023-03-17T07:56:29.240Z,6.50
2023-03-17T07:58:32.559Z,6.60
2023-03-17T08:00:36.211Z,6.72
2023-03-17T08:02:39.921Z,6.81
2023-03-17T08:04:43.400Z,6.89
2023-03-17T08:06:47.753Z,6.96
2023-03-17T08:08:51.018Z,7.03
2023-03-17T08:11:02.167Z,7.10
2023-03-17T08:13:05.501Z,7.19
2023-03-17T08:15:10.531Z,7.30
2023-03-17T08:17:13.859Z,7.40
2023-03-17T08:19:17.464Z,7.48
2023-03-17T08:21:21.068Z,7.54
2023-03-17T08:23:25.548Z,7.61
2023-03-17T08:25:29.645Z,7.69
2023-03-17T08:27:34.405Z,7.76
2023-03-17T08:29:37.746Z,7.86
2023-03-17T08:31:42.511Z,7.97
2023-03-17T08:33:48.854Z,8.08
2023-03-17T08:35:52.362Z,8.16
2023-03-17T08:37:56.278Z,8.24
2023-03-17T08:40:00.986Z,8.34
2023-03-17T08:42:06.121Z,8.43
2023-03-17T08:44:13.100Z,8.53
2023-03-17T08:46:18.867Z,8.61
2023-03-17T08:48:22.524Z,8.69
2023-03-17T08:50:26.204Z,8.74
2023-03-17T08:52:29.818Z,8.80
2023-03-17T08:54:35.856Z,8.90
2023-03-17T08:56:40.646Z,9.02
2023-03-17T08:58:44.384Z,9.15
2023-03-17T09:00:50.832Z,9.28
2023-03-17T09:02:54.374Z,9.38
2023-03-17T09:04:57.816Z,9.48
2023-03-17T09:07:04.066Z,9.56
2023-03-17T09:09:07.713Z,9.64
2023-03-17T09:11:15.208Z,9.71
2023-03-17T09:13:19.153Z,9.75
2023-03-17T09:15:23.331Z,9.81
2023-03-17T09:17:28.092Z,9.84
2023-03-17T09:19:31.649Z,9.88
2023-03-17T09:21:35.035Z,9.93
2023-03-17T09:23:38.382Z,10.00
2023-03-17T09:25:44.083Z,10.08
2023-03-17T09:27:54.822Z,10.17
2023-03-17T09:30:06.107Z,10.30
2023-03-17T09:32:12.112Z,10.42
2023-03-17T09:34:17.187Z,10.54
2023-03-17T09:36:20.729Z,10.70
2023-03-17T09:38:24.885Z,10.86
2023-03-17T09:40:34.043Z,11.01
2023-03-17T09:42:52.398Z,11.13
2023-03-17T09:45:07.253Z,11.23
2023-03-17T09:47:29.040Z,11.31
2023-03-17T09:49:39.511Z,11.36
2023-03-17T09:51:47.642Z,11.39
2023-03-17T09:53:56.146Z,11.44
2023-03-17T09:56:00.066Z,11.49
2023-03-17T09:58:04.734Z,11.56
2023-03-17T10:00:15.326Z,11.66
2023-03-17T10:02:24.028Z,11.74
2023-03-17T10:04:28.222Z,11.79
2023-03-17T10:06:43.595Z,11.82
2023-03-17T10:08:52.704Z,11.84
2023-03-17T10:11:00.580Z,11.86
2023-03-17T10:13:14.327Z,11.87
2023-03-17T10:15:23.959Z,11.90
2023-03-17T10:17:32.091Z,11.94
2023-03-17T10:19:41.854Z,11.98
2023-03-17T10:21:54.748Z,12.05
2023-03-17T10:23:59.417Z,12.15
2023-03-17T10:26:09.630Z,12.24
2023-03-17T10:28:25.967Z,12.34
2023-03-17T10:30:31.812Z,12.44
2023-03-17T10:32:43.118Z,12.55
2023-03-17T10:34:48.695Z,12.67
2023-03-17T10:36:56.663Z,12.79
2023-03-17T10:39:02.420Z,12.88
2023-03-17T10:41:09.923Z,12.98
2023-03-17T10:43:19.286Z,13.09
2023-03-17T10:45:28.841Z,13.23
2023-03-17T10:47:34.576Z,13.38
2023-03-17T10:49:41.408Z,13.53
2023-03-17T10:51:47.932Z,13.62
2023-03-17T10:53:54.919Z,13.69
2023-03-17T10:56:01.159Z,13.75
2023-03-17T10:58:07.423Z,13.85
2023-03-17T11:00:18.231Z,13.99
2023-03-17T11:02:27.333Z,14.11
2023-03-17T11:04:33.608Z,14.17
2023-03-17T11:06:42.200Z,14.19
2023-03-17T11:08:49.647Z,14.19
2023-03-17T11:10:58.133Z,14.22
2023-03-17T11:13:02.938Z,14.22
2023-03-17T11:15:08.735Z,14.20
2023-03-17T11:17:18.807Z,14.19
2023-03-17T11:19:29.950Z,14.20
2023-03-17T11:21:46.919Z,14.25
2023-03-17T11:23:53.534Z,14.30
2023-03-17T11:26:08.813Z,14.35
2023-03-17T11:28:20.830Z,14.39
2023-03-17T11:30:32.955Z,14.41
2023-03-17T11:32:43.665Z,14.40
2023-03-17T11:34:57.912Z,14.40
2023-03-17T11:37:10.786Z,14.40
2023-03-17T11:39:17.331Z,14.42
2023-03-17T11:41:36.309Z,14.41
2023-03-17T11:43:52.951Z,14.41
2023-03-17T11:46:04.963Z,14.44
2023-03-17T11:48:18.209Z,14.49
2023-03-17T11:50:31.056Z,14.58
2023-03-17T11:52:46.414Z,14.68
2023-03-17T11:55:00.074Z,14.77
2023-03-17T11:57:10.580Z,14.88
2023-03-17T11:59:31.781Z,14.99
2023-03-17T12:01:45.844Z,15.09
2023-03-17T12:03:54.443Z,15.18
2023-03-17T12:06:01.936Z,15.24
2023-03-17T12:08:12.551Z,15.31
2023-03-17T12:10:23.695Z,15.37
2023-03-17T12:12:34.828Z,15.42
2023-03-17T12:14:45.260Z,15.48
2023-03-17T12:16:52.540Z,15.55
2023-03-17T12:19:03.408Z,15.64
2023-03-17T12:21:14.685Z,15.72
2023-03-17T12:23:29.967Z,15.78
2023-03-17T12:25:35.786Z,15.83
2023-03-17T12:27:45.584Z,15.87
2023-03-17T12:29:54.203Z,15.89
2023-03-17T12:32:07.338Z,15.92
2023-03-17T12:34:18.525Z,15.92
2023-03-17T12:36:23.091Z,15.99
2023-03-17T12:38:36.411Z,16.04
2023-03-17T12:40:55.794Z,16.08
2023-03-17T12:43:20.333Z,16.14
2023-03-17T12:45:51.529Z,16.23
2023-03-17T12:48:26.156Z,16.27
2023-03-17T12:50:45.753Z,16.31
2023-03-17T12:53:11.317Z,16.34
2023-03-17T12:55:16.777Z,16.35
2023-03-17T12:57:22.712Z,16.40
2023-03-17T12:59:27.698Z,16.47
2023-03-17T13:01:34.045Z,16.53
2023-03-17T13:03:38.870Z,16.59
2023-03-17T13:05:48.125Z,16.68
2023-03-17T13:07:55.015Z,16.74
2023-03-17T13:10:20.370Z,16.83
2023-03-17T13:12:57.881Z,17.01
2023-03-17T13:15:02.751Z,17.27
2023-03-17T13:17:28.568Z,17.60
2023-03-17T13:19:34.112Z,17.99
2023-03-17T13:21:38.775Z,18.29
2023-03-17T13:23:45.205Z,18.51
2023-03-17T13:25:53.950Z,18.69
2023-03-17T13:28:18.219Z,18.75
2023-03-17T13:30:57.064Z,18.73
2023-03-17T13:33:23.763Z,18.74
2023-03-17T13:35:42.774Z,18.73
2023-03-17T13:38:08.430Z,18.63
2023-03-17T13:40:19.268Z,18.52
2023-03-17T13:42:50.905Z,18.40
2023-03-17T13:45:21.943Z,18.32
2023-03-17T13:47:35.832Z,18.27
2023-03-17T13:49:39.117Z,18.22
2023-03-17T13:51:52.928Z,18.16
2023-03-17T13:54:10.443Z,18.15
2023-03-17T13:56:19.865Z,18.19
2023-03-17T13:58:34.485Z,18.23
2023-03-17T14:00:40.163Z,18.30
2023-03-17T14:02:45.941Z,18.44
2023-03-17T14:04:57.604Z,18.68
2023-03-17T14:07:06.980Z,18.89
2023-03-17T14:09:26.769Z,19.04
2023-03-17T14:11:34.212Z,19.14
2023-03-17T14:13:44.439Z,19.16
2023-03-17T14:15:56.626Z,19.08
2023-03-17T14:18:04.693Z,18.94
2023-03-17T14:20:24.167Z,18.85
2023-03-17T14:22:28.192Z,18.82
2023-03-17T14:24:33.279Z,18.75
2023-03-17T14:26:36.784Z,18.62
2023-03-17T14:28:40.760Z,18.51
2023-03-17T14:30:52.901Z,18.39
2023-03-17T14:33:04.743Z,18.25
2023-03-17T14:35:14.622Z,18.08
2023-03-17T14:37:18.003Z,17.88
2023-03-17T14:39:26.440Z,17.73
2023-03-17T14:41:32.831Z,17.60
2023-03-17T14:43:37.879Z,17.56
2023-03-17T14:45:51.783Z,17.59
2023-03-17T14:47:55.439Z,17.64
2023-03-17T14:50:03.286Z,17.67
2023-03-17T14:52:07.411Z,17.68
2023-03-17T14:54:15.385Z,17.68
2023-03-17T14:56:23.884Z,17.67
2023-03-17T14:58:31.846Z,17.69
2023-03-17T15:00:38.134Z,17.73
2023-03-17T15:02:44.232Z,17.79
2023-03-17T15:04:56.964Z,17.80
2023-03-17T15:07:05.256Z,17.79
2023-03-17T15:09:18.997Z,17.75
2023-03-17T15:11:25.920Z,17.69
2023-03-17T15:13:34.116Z,17.60
2023-03-17T15:15:41.611Z,17.50
2023-03-17T15:17:45.030Z,17.40
2023-03-17T15:19:50.675Z,17.28
2023-03-17T15:21:57.080Z,17.16
2023-03-17T15:24:06.262Z,17.04
2023-03-17T15:26:23.574Z,16.93
2023-03-17T15:28:30.385Z,16.80
2023-03-17T15:30:46.716Z,16.69
2023-03-17T15:32:59.649Z,16.57
2023-03-17T15:35:03.417Z,16.48
2023-03-17T15:37:15.912Z,16.38
2023-03-17T15:39:23.505Z,16.28
2023-03-17T15:41:26.938Z,16.20
2023-03-17T15:43:30.362Z,16.11
2023-03-17T15:45:34.021Z,16.03
2023-03-17T15:47:40.104Z,15.95
2023-03-17T15:49:44.012Z,15.89
2023-03-17T15:51:47.382Z,15.85
2023-03-17T15:53:51.154Z,15.80
2023-03-17T15:55:56.577Z,15.77
2023-03-17T15:58:01.036Z,15.72
2023-03-17T16:00:04.610Z,15.68
2023-03-17T16:02:29.108Z,15.64
2023-03-17T16:04:32.756Z,15.60
2023-03-17T16:06:36.836Z,15.57
2023-03-17T16:08:40.090Z,15.57
2023-03-17T16:10:43.391Z,15.58
2023-03-17T16:12:48.412Z,15.57
2023-03-17T16:14:54.230Z,15.55
2023-03-17T16:16:58.181Z,15.53
2023-03-17T16:19:01.837Z,15.50
2023-03-17T16:21:06.213Z,15.47
2023-03-17T16:23:15.428Z,15.43
2023-03-17T16:25:21.843Z,15.39
2023-03-17T16:27:25.161Z,15.35
2023-03-17T16:29:31.113Z,15.30
2023-03-17T16:31:34.555Z,15.25
2023-03-17T16:33:41.078Z,15.21
2023-03-17T16:35:44.861Z,15.15
2023-03-17T16:37:49.239Z,15.09
2023-03-17T16:39:52.471Z,15.04
2023-03-17T16:41:55.789Z,14.97
2023-03-17T16:44:01.488Z,14.89
2023-03-17T16:46:07.847Z,14.83
2023-03-17T16:48:14.738Z,14.76
2023-03-17T16:50:21.347Z,14.69
2023-03-17T16:52:24.632Z,14.64
2023-03-17T16:54:31.330Z,14.56
2023-03-17T16:56:34.820Z,14.48
2023-03-17T16:58:38.220Z,14.41
2023-03-17T17:00:41.522Z,14.34
2023-03-17T17:02:49.227Z,14.25
2023-03-17T17:04:54.622Z,14.16
2023-03-17T17:06:58.156Z,14.08
2023-03-17T17:09:01.374Z,13.99
2023-03-17T17:11:06.497Z,13.91
2023-03-17T17:13:11.069Z,13.81
2023-03-17T17:15:16.725Z,13.75
2023-03-17T17:17:20.037Z,13.70
2023-03-17T17:19:25.384Z,13.64
2023-03-17T17:21:29.434Z,13.60
2023-03-17T17:23:35.558Z,13.56
2023-03-17T17:25:40.285Z,13.52
2023-03-17T17:27:48.007Z,13.47
2023-03-17T17:29:51.395Z,13.43
2023-03-17T17:31:54.953Z,13.37
2023-03-17T17:33:58.523Z,13.32
2023-03-17T17:36:04.097Z,13.25
2023-03-17T17:38:16.664Z,13.18
2023-03-17T17:40:24.487Z,13.13
2023-03-17T17:42:28.031Z,13.09
2023-03-17T17:44:32.388Z,13.06
2023-03-17T17:46:35.947Z,13.03
2023-03-17T17:48:39.262Z,12.98
2023-03-17T17:50:43.555Z,12.93
2023-03-17T17:52:48.356Z,12.87
2023-03-17T17:54:51.773Z,12.83
2023-03-17T17:56:55.159Z,12.79
2023-03-17T17:58:59.336Z,12.75
2023-03-17T18:01:04.824Z,12.72
2023-03-17T18:03:08.447Z,12.67
2023-03-17T18:05:12.783Z,12.64
2023-03-17T18:07:16.526Z,12.61
2023-03-17T18:09:21.617Z,12.57
2023-03-17T18:11:24.912Z,12.53
2023-03-17T18:13:28.286Z,12.49
2023-03-17T18:15:31.626Z,12.46
2023-03-17T18:17:35.317Z,12.42
2023-03-17T18:19:38.614Z,12.40
2023-03-17T18:21:42.136Z,12.38
2023-03-17T18:23:47.244Z,12.36
2023-03-17T18:25:52.045Z,12.33
2023-03-17T18:27:56.329Z,12.31
2023-03-17T18:30:00.859Z,12.28
2023-03-17T18:32:06.094Z,12.24
2023-03-17T18:34:14.990Z,12.22
2023-03-17T18:36:18.658Z,12.18
2023-03-17T18:38:22.054Z,12.16
2023-03-17T18:40:26.175Z,12.15
2023-03-17T18:42:30.782Z,12.14
2023-03-17T18:44:34.348Z,12.12
2023-03-17T18:46:38.129Z,12.11
2023-03-17T18:48:41.856Z,12.08
2023-03-17T18:50:45.088Z,12.09
2023-03-17T18:52:48.713Z,12.08
2023-03-17T18:54:52.126Z,12.07
2023-03-17T18:56:55.360Z,12.05
2023-03-17T18:59:01.114Z,12.04
2023-03-17T19:01:05.566Z,12.02
2023-03-17T19:03:08.944Z,12.00
2023-03-17T19:05:12.847Z,11.97
2023-03-17T19:07:16.446Z,11.95
2023-03-17T19:09:20.236Z,11.93
2023-03-17T19:11:24.458Z,11.89
2023-03-17T19:13:28.062Z,11.84
2023-03-17T19:15:32.696Z,11.82
2023-03-17T19:17:36.001Z,11.79
2023-03-17T19:19:40.662Z,11.75
2023-03-17T19:21:43.929Z,11.71
2023-03-17T19:23:47.452Z,11.69
2023-03-17T19:25:51.327Z,11.63
2023-03-17T19:27:54.556Z,11.61
2023-03-17T19:29:57.815Z,11.60
2023-03-17T19:32:02.466Z,11.59
2023-03-17T19:34:06.652Z,11.59
2023-03-17T19:36:12.746Z,11.57
2023-03-17T19:38:17.110Z,11.56
2023-03-17T19:40:20.545Z,11.55
2023-03-17T19:42:23.798Z,11.52
2023-03-17T19:44:27.449Z,11.50
2023-03-17T19:46:30.938Z,11.47
2023-03-17T19:48:36.461Z,11.43
2023-03-17T19:50:40.757Z,11.39
2023-03-17T19:52:43.975Z,11.36
2023-03-17T19:54:47.464Z,11.33
2023-03-17T19:56:51.098Z,11.30
2023-03-17T19:58:54.356Z,11.27
2023-03-17T20:00:57.661Z,11.25
2023-03-17T20:03:01.280Z,11.20
2023-03-17T20:05:08.454Z,11.16
2023-03-17T20:07:11.905Z,11.14
2023-03-17T20:09:15.157Z,11.10
2023-03-17T20:11:19.412Z,11.06
2023-03-17T20:13:22.735Z,11.03
2023-03-17T20:15:25.966Z,10.99
2023-03-17T20:17:29.159Z,10.95
2023-03-17T20:19:32.588Z,10.88
2023-03-17T20:21:37.792Z,10.83
2023-03-17T20:23:41.051Z,10.79
2023-03-17T20:25:44.930Z,10.75
2023-03-17T20:27:48.338Z,10.70
2023-03-17T20:29:51.664Z,10.68
2023-03-17T20:31:55.298Z,10.65
2023-03-17T20:33:58.938Z,10.64
2023-03-17T20:36:03.249Z,10.61
2023-03-17T20:38:08.335Z,10.59
2023-03-17T20:40:12.982Z,10.57
2023-03-17T20:42:16.636Z,10.54
2023-03-17T20:44:21.312Z,10.52
2023-03-17T20:46:26.566Z,10.51
2023-03-17T20:48:30.172Z,10.48
2023-03-17T20:50:34.510Z,10.46
2023-03-17T20:52:38.242Z,10.43
2023-03-17T20:54:43.661Z,10.41
2023-03-17T20:56:48.798Z,10.40
2023-03-17T20:58:53.228Z,10.39
2023-03-17T21:00:58.506Z,10.40
2023-03-17T21:03:02.249Z,10.43
2023-03-17T21:05:07.481Z,10.46
2023-03-17T21:07:10.667Z,10.47
2023-03-17T21:09:14.154Z,10.50
2023-03-17T21:11:20.924Z,10.50
2023-03-17T21:13:25.301Z,10.52
2023-03-17T21:15:31.855Z,10.53
2023-03-17T21:17:35.464Z,10.54
2023-03-17T21:19:39.374Z,10.54
2023-03-17T21:21:43.181Z,10.56
2023-03-17T21:23:47.081Z,10.57
2023-03-17T21:25:56.081Z,10.57
2023-03-17T21:28:01.590Z,10.57
2023-03-17T21:30:08.873Z,10.57
2023-03-17T21:32:12.574Z,10.60
2023-03-17T21:34:16.088Z,10.62
2023-03-17T21:36:20.886Z,10.65
2023-03-17T21:38:24.291Z,10.67
2023-03-17T21:40:27.570Z,10.69
2023-03-17T21:42:30.764Z,10.71
2023-03-17T21:44:35.864Z,10.72
2023-03-17T21:46:39.208Z,10.74
2023-03-17T21:48:42.477Z,10.75
2023-03-17T21:50:46.846Z,10.76
2023-03-17T21:52:50.390Z,10.76
2023-03-17T21:54:54.885Z,10.77
2023-03-17T21:56:59.082Z,10.78
2023-03-17T21:59:03.077Z,10.78
2023-03-17T22:01:09.200Z,10.78
2023-03-17T22:03:12.626Z,10.77
2023-03-17T22:05:15.922Z,10.78
2023-03-17T22:07:19.524Z,10.79
2023-03-17T22:09:22.772Z,10.79
2023-03-17T22:11:26.050Z,10.80
2023-03-17T22:13:29.272Z,10.80
2023-03-17T22:15:32.526Z,10.80
2023-03-17T22:17:38.062Z,10.80
2023-03-17T22:19:42.451Z,10.80
2023-03-17T22:21:45.756Z,10.78
2023-03-17T22:23:49.014Z,10.76
2023-03-17T22:25:52.396Z,10.75
2023-03-17T22:27:56.245Z,10.75
2023-03-17T22:29:59.739Z,10.73
2023-03-17T22:32:03.117Z,10.72
2023-03-17T22:34:09.952Z,10.69
2023-03-17T22:36:13.384Z,10.68
2023-03-17T22:38:17.931Z,10.67
2023-03-17T22:40:21.485Z,10.67
2023-03-17T22:42:24.678Z,10.64
2023-03-17T22:44:28.133Z,10.64
2023-03-17T22:46:32.180Z,10.63
2023-03-17T22:48:36.857Z,10.63
2023-03-17T22:50:43.345Z,10.63
2023-03-17T22:52:46.570Z,10.63
2023-03-17T22:54:49.819Z,10.63
2023-03-17T22:56:53.433Z,10.62
2023-03-17T22:58:56.667Z,10.60
2023-03-17T23:00:59.966Z,10.59
2023-03-17T23:03:03.699Z,10.56
2023-03-17T23:05:07.592Z,10.52
2023-03-17T23:07:12.286Z,10.49
2023-03-17T23:09:15.701Z,10.47
2023-03-17T23:11:22.247Z,10.46
2023-03-17T23:13:25.597Z,10.44
2023-03-17T23:15:28.963Z,10.43
2023-03-17T23:17:32.311Z,10.43
2023-03-17T23:19:36.867Z,10.42
2023-03-17T23:21:40.643Z,10.41
2023-03-17T23:23:45.330Z,10.40
2023-03-17T23:25:48.824Z,10.39
2023-03-17T23:27:52.476Z,10.37
2023-03-17T23:29:55.713Z,10.35
2023-03-17T23:32:00.416Z,10.34
2023-03-17T23:34:04.500Z,10.31
2023-03-17T23:36:09.191Z,10.29
2023-03-17T23:38:13.037Z,10.28
2023-03-17T23:40:18.778Z,10.27
2023-03-17T23:42:22.291Z,10.25
2023-03-17T23:44:25.640Z,10.23
2023-03-17T23:46:29.041Z,10.22
2023-03-17T23:48:32.775Z,10.21
2023-03-17T23:50:36.342Z,10.20
2023-03-17T23:52:40.496Z,10.17
2023-03-17T23:54:44.073Z,10.17
2023-03-17T23:56:48.638Z,10.15
2023-03-17T23:58:52.156Z,10.14
